Time;durP1;ratioP1;P1;durP2;ratioP2;P2;SDS_P1;SDS_P2;PMS_P1;PMS_P2;Temp;Humidity;BMP_temperature;BMP_pressure;BME280_temperature;BME280_humidity;BME280_pressure;Samples;Min_cycle;Max_cycle;Signal;HPM_P1;HPM_P2
2023/01/27 00:00:11;;;;;;;2.17;2.08;;;3.70;99.90;;;;;;4999253;28;20124;-89
2023/01/27 00:02:39;;;;;;;0.60;0.60;;;3.80;99.90;;;;;;5048495;28;20638;-91
2023/01/27 00:05:06;;;;;;;1.02;1.02;;;4.20;99.90;;;;;;5015391;28;20052;-89
2023/01/27 00:07:32;;;;;;;0.52;0.52;;;3.70;99.90;;;;;;5041974;28;20033;-87
2023/01/27 00:09:57;;;;;;;1.00;1.00;;;4.70;99.90;;;;;;5040714;28;20033;-88
2023/01/27 00:15:12;;;;;;;0.50;0.50;;;3.70;99.90;;;;;;5051874;28;20383;-90
2023/01/27 00:17:37;;;;;;;0.73;0.73;;;3.70;99.90;;;;;;5044141;28;20114;-88
2023/01/27 00:20:05;;;;;;;0.60;0.60;;;3.70;99.90;;;;;;5055216;28;20072;-90
2023/01/27 00:25:16;;;;;;;0.65;0.65;;;3.80;99.90;;;;;;5050440;28;20079;-89
2023/01/27 00:27:42;;;;;;;0.60;0.60;;;4.10;99.90;;;;;;5015213;28;20495;-89
2023/01/27 00:30:09;;;;;;;0.70;0.70;;;3.60;99.90;;;;;;5050996;28;20083;-90
2023/01/27 00:35:19;;;;;;;0.50;0.50;;;3.60;99.90;;;;;;5038326;28;20128;-88
2023/01/27 00:37:45;;;;;;;0.60;0.60;;;4.10;99.90;;;;;;5035087;28;20126;-90
2023/01/27 00:40:13;;;;;;;0.60;0.60;;;3.50;99.90;;;;;;5052298;28;20419;-90
2023/01/27 00:42:39;;;;;;;0.70;0.70;;;3.60;99.90;;;;;;5022016;28;20513;-91
2023/01/27 00:47:51;;;;;;;0.55;0.55;;;3.50;99.90;;;;;;5036089;28;20168;-89
2023/01/27 00:50:18;;;;;;;0.50;0.50;;;4.10;99.90;;;;;;5030044;28;20052;-90
2023/01/27 00:52:44;;;;;;;0.70;0.70;;;3.50;99.90;;;;;;5053014;28;20048;-90
2023/01/27 00:55:11;;;;;;;0.65;0.65;;;4.20;99.90;;;;;;5034631;28;20030;-91
2023/01/27 00:57:37;;;;;;;0.40;0.40;;;3.70;99.90;;;;;;5022076;28;20052;-90
2023/01/27 01:00:08;;;;;;;;;;;4.00;99.90;;;;;;5007526;28;20037;-89
2023/01/27 01:02:40;;;;;;;0.68;0.68;;;3.50;99.90;;;;;;5028762;28;19916;-89
2023/01/27 01:05:06;;;;;;;0.50;0.50;;;3.60;99.90;;;;;;5053786;28;20040;-89
2023/01/27 01:07:32;;;;;;;0.60;0.60;;;3.60;99.90;;;;;;5013129;28;20043;-88
2023/01/27 01:09:58;;;;;;;2.13;1.92;;;3.60;99.90;;;;;;5026381;28;20041;-91
2023/01/27 01:12:23;;;;;;;0.60;0.60;;;3.70;99.90;;;;;;5024903;28;20594;-91
2023/01/27 01:14:49;;;;;;;0.77;0.77;;;3.60;99.90;;;;;;5007254;28;20101;-91
2023/01/27 01:17:15;;;;;;;0.70;0.70;;;3.60;99.90;;;;;;5037746;28;20028;-89
2023/01/27 01:19:40;;;;;;;0.60;0.60;;;4.20;99.90;;;;;;5030462;28;20041;-91
2023/01/27 01:22:06;;;;;;;0.73;0.73;;;3.70;99.90;;;;;;5038679;28;20039;-91
2023/01/27 01:24:32;;;;;;;0.60;0.60;;;3.60;99.90;;;;;;5025152;28;20037;-90
2023/01/27 01:26:57;;;;;;;0.52;0.52;;;4.00;99.90;;;;;;5016298;28;20399;-90
2023/01/27 01:29:23;;;;;;;0.70;0.70;;;4.30;99.90;;;;;;5029616;28;20033;-89
2023/01/27 01:31:52;;;;;;;0.60;0.60;;;3.60;99.90;;;;;;5052927;28;20131;-89
2023/01/27 01:34:17;;;;;;;0.57;0.57;;;3.60;99.90;;;;;;5051799;28;20057;-88
2023/01/27 01:36:43;;;;;;;0.60;0.60;;;3.70;99.90;;;;;;5022164;28;20588;-88
2023/01/27 01:39:09;;;;;;;0.60;0.60;;;3.60;99.90;;;;;;5044045;28;20039;-89
2023/01/27 01:41:34;;;;;;;0.57;0.57;;;5.00;99.90;;;;;;5028345;28;20048;-90
2023/01/27 01:44:24;;;;;;;0.50;0.50;;;4.20;99.90;;;;;;5040488;28;20044;-91
2023/01/27 01:46:49;;;;;;;1.15;1.15;;;3.70;99.90;;;;;;5033055;28;20040;-90
2023/01/27 01:49:19;;;;;;;0.60;0.60;;;3.80;99.90;;;;;;5014836;28;20043;-88
2023/01/27 01:51:49;;;;;;;0.50;0.50;;;3.70;99.90;;;;;;5034566;28;20097;-89
2023/01/27 01:54:28;;;;;;;0.50;0.50;;;5.00;99.90;;;;;;5045038;28;20128;-88
2023/01/27 01:57:05;;;;;;;0.50;0.50;;;4.30;99.90;;;;;;5030283;28;20025;-88
2023/01/27 01:59:32;;;;;;;;;;;3.70;99.90;;;;;;5049451;28;20029;-89
2023/01/27 02:02:02;;;;;;;0.50;0.50;;;3.70;99.90;;;;;;5053158;28;19923;-88
2023/01/27 02:04:33;;;;;;;0.60;0.60;;;3.70;99.90;;;;;;5047114;28;20116;-88
2023/01/27 02:07:10;;;;;;;0.60;0.60;;;4.70;99.90;;;;;;5039607;28;20051;-89
2023/01/27 02:09:38;;;;;;;0.60;0.60;;;3.70;99.90;;;;;;5044823;28;20045;-88
2023/01/27 02:12:04;;;;;;;0.70;0.70;;;4.20;99.90;;;;;;5049763;28;20112;-89
2023/01/27 02:14:30;;;;;;;;;;;3.70;99.90;;;;;;5027880;28;20037;-89
2023/01/27 02:16:56;;;;;;;0.60;0.60;;;4.00;99.90;;;;;;5042175;28;19917;-88
2023/01/27 02:19:39;;;;;;;0.60;0.60;;;3.70;99.90;;;;;;5033877;28;20450;-89
2023/01/27 02:22:09;;;;;;;0.60;0.60;;;3.70;99.90;;;;;;5051098;28;20041;-88
2023/01/27 02:24:42;;;;;;;0.40;0.40;;;3.80;99.90;;;;;;5050719;28;20093;-90
2023/01/27 02:27:08;;;;;;;0.50;0.50;;;3.80;99.90;;;;;;5024520;28;20088;-91
2023/01/27 02:29:34;;;;;;;0.50;0.50;;;4.40;99.90;;;;;;5028781;28;20205;-89
2023/01/27 02:31:59;;;;;;;0.60;0.60;;;3.90;99.90;;;;;;5025098;28;20033;-88
2023/01/27 02:34:31;;;;;;;0.47;0.47;;;3.80;99.90;;;;;;5012858;28;20108;-86
2023/01/27 02:37:00;;;;;;;0.63;0.63;;;3.80;99.90;;;;;;5058294;28;20037;-87
2023/01/27 02:39:32;;;;;;;0.60;0.60;;;3.70;99.90;;;;;;5039938;28;20037;-88
2023/01/27 02:42:00;;;;;;;0.50;0.50;;;3.80;99.90;;;;;;5064947;28;20071;-85
2023/01/27 02:44:26;;;;;;;0.50;0.50;;;4.00;99.90;;;;;;5038376;28;20037;-89
2023/01/27 02:46:53;;;;;;;0.60;0.60;;;3.80;99.90;;;;;;5044710;28;20052;-89
2023/01/27 02:49:18;;;;;;;0.55;0.55;;;4.40;99.90;;;;;;5021006;28;20044;-90
2023/01/27 02:51:44;;;;;;;0.60;0.60;;;3.80;99.90;;;;;;4999257;28;20037;-86
2023/01/27 02:54:10;;;;;;;0.60;0.60;;;3.70;99.90;;;;;;5013203;28;20075;-88
2023/01/27 02:56:35;;;;;;;0.60;0.60;;;3.70;99.90;;;;;;5033110;28;21605;-89
2023/01/27 02:59:01;;;;;;;0.60;0.60;;;2.80;99.90;;;;;;5045718;28;20040;-87
2023/01/27 03:01:27;;;;;;;0.60;0.60;;;4.30;99.90;;;;;;5013901;28;20337;-88
2023/01/27 03:03:52;;;;;;;0.63;0.63;;;4.00;99.90;;;;;;5049166;28;20045;-87
2023/01/27 03:06:19;;;;;;;0.70;0.70;;;4.50;99.90;;;;;;5039725;28;20487;-88
2023/01/27 03:08:44;;;;;;;;;;;3.70;99.90;;;;;;5038257;28;20047;-89
2023/01/27 03:11:11;;;;;;;0.50;0.50;;;3.80;99.90;;;;;;5022433;28;19917;-87
2023/01/27 03:13:37;;;;;;;0.57;0.57;;;3.70;99.90;;;;;;5053874;28;20049;-86
2023/01/27 03:18:50;;;;;;;2.45;2.35;;;3.70;99.90;;;;;;5055138;28;20041;-88
2023/01/27 03:21:19;;;;;;;0.63;0.63;;;3.70;99.90;;;;;;5052944;28;20403;-88
2023/01/27 03:23:47;;;;;;;0.60;0.60;;;3.90;99.90;;;;;;5046659;28;20387;-89
2023/01/27 03:26:14;;;;;;;0.60;0.60;;;4.50;99.90;;;;;;5032610;28;20369;-87
2023/01/27 03:28:40;;;;;;;0.60;0.60;;;3.70;99.90;;;;;;5034415;28;20479;-89
2023/01/27 03:31:07;;;;;;;0.70;0.70;;;4.30;99.90;;;;;;5044391;28;20052;-90
2023/01/27 03:33:34;;;;;;;0.57;0.57;;;4.70;99.90;;;;;;5051898;28;20053;-87
2023/01/27 03:47:01;;;;;;;0.60;0.60;;;3.50;99.90;;;;;;5052947;28;20044;-90
2023/01/27 03:49:27;;;;;;;0.90;0.90;;;3.50;99.90;;;;;;5039813;28;20040;-90
2023/01/27 03:51:52;;;;;;;0.50;0.50;;;3.50;99.90;;;;;;5032492;28;20128;-90
2023/01/27 03:54:18;;;;;;;0.50;0.50;;;4.10;99.90;;;;;;5034814;28;20037;-89
2023/01/27 03:56:46;;;;;;;0.47;0.47;;;4.30;99.90;;;;;;5036412;28;20128;-88
2023/01/27 03:59:12;;;;;;;0.57;0.57;;;3.70;99.90;;;;;;5055048;28;20045;-90
2023/01/27 04:01:38;;;;;;;;;;;3.40;99.90;;;;;;5055107;28;20487;-89
2023/01/27 04:07:01;;;;;;;0.70;0.70;;;3.40;99.90;;;;;;5040684;28;20045;-89
2023/01/27 04:09:35;;;;;;;0.60;0.60;;;4.70;99.90;;;;;;5006630;28;20445;-88
2023/01/27 04:12:03;;;;;;;0.70;0.70;;;3.90;99.90;;;;;;5032315;28;20041;-88
2023/01/27 04:14:37;;;;;;;0.50;0.50;;;3.40;99.90;;;;;;5047839;28;20037;-90
2023/01/27 04:17:05;;;;;;;0.50;0.50;;;3.40;99.90;;;;;;5028119;28;20116;-90
2023/01/27 04:19:32;;;;;;;0.60;0.60;;;3.80;99.90;;;;;;5042910;28;20037;-89
2023/01/27 04:21:59;;;;;;;0.98;0.98;;;3.80;99.90;;;;;;5044354;28;20051;-90
2023/01/27 04:24:25;;;;;;;0.50;0.50;;;3.40;99.90;;;;;;5014196;28;20395;-91
2023/01/27 04:27:03;;;;;;;0.50;0.50;;;3.40;99.90;;;;;;5049482;28;20037;-89
2023/01/27 04:29:39;;;;;;;0.60;0.60;;;3.40;99.90;;;;;;5053588;28;20076;-90
2023/01/27 04:32:06;;;;;;;;;;;3.40;99.90;;;;;;5051491;28;20065;-87
2023/01/27 04:34:32;;;;;;;0.60;0.60;;;3.40;99.90;;;;;;5030162;28;19928;-90
2023/01/27 04:36:58;;;;;;;0.50;0.50;;;4.00;99.90;;;;;;5034035;28;20041;-87
2023/01/27 04:39:24;;;;;;;;;;;4.00;99.90;;;;;;5054445;28;20029;-89
2023/01/27 04:41:50;;;;;;;0.70;0.70;;;3.40;99.90;;;;;;5026595;28;20274;-87
2023/01/27 04:44:18;;;;;;;;;;;3.40;99.90;;;;;;5048306;28;20072;-89
2023/01/27 04:46:45;;;;;;;0.52;0.52;;;3.40;99.90;;;;;;5052489;28;19927;-88
2023/01/27 04:49:10;;;;;;;0.70;0.70;;;3.50;99.90;;;;;;5026842;28;20101;-88
2023/01/27 04:51:36;;;;;;;0.70;0.70;;;3.40;99.90;;;;;;5038303;28;20120;-86
2023/01/27 04:54:05;;;;;;;0.50;0.50;;;3.80;99.90;;;;;;5036964;28;20083;-86
2023/01/27 04:56:40;;;;;;;0.60;0.60;;;3.40;99.90;;;;;;5048624;28;20386;-86
2023/01/27 04:59:09;;;;;;;0.70;0.70;;;3.60;99.90;;;;;;5049802;28;20032;-86
2023/01/27 05:01:35;;;;;;;0.60;0.60;;;3.40;99.90;;;;;;5048959;28;20133;-89
2023/01/27 05:04:01;;;;;;;0.70;0.70;;;3.80;99.90;;;;;;5017382;28;20080;-89
2023/01/27 05:06:27;;;;;;;0.70;0.70;;;4.80;99.90;;;;;;5028541;28;20036;-88
2023/01/27 05:08:53;;;;;;;1.00;1.00;;;4.80;99.90;;;;;;5029546;28;20033;-90
2023/01/27 05:11:19;;;;;;;0.93;0.93;;;3.50;99.90;;;;;;5035061;28;20076;-89
2023/01/27 05:13:45;;;;;;;0.75;0.75;;;4.20;99.90;;;;;;5038199;28;20083;-88
2023/01/27 05:16:13;;;;;;;;;;;3.40;99.90;;;;;;5051530;28;20055;-88
2023/01/27 05:18:40;;;;;;;0.65;0.65;;;3.60;99.90;;;;;;5048391;28;20008;-86
2023/01/27 05:21:07;;;;;;;0.60;0.60;;;3.40;99.90;;;;;;5049267;28;20076;-85
2023/01/27 05:23:36;;;;;;;0.60;0.60;;;3.70;99.90;;;;;;5032108;28;20484;-86
2023/01/27 05:26:20;;;;;;;0.63;0.63;;;3.30;99.90;;;;;;5044002;28;20033;-87
2023/01/27 05:28:47;;;;;;;0.70;0.70;;;3.30;99.90;;;;;;5038653;28;20041;-86
2023/01/27 05:31:14;;;;;;;0.60;0.60;;;3.90;99.90;;;;;;5052272;28;20037;-87
2023/01/27 05:33:41;;;;;;;0.65;0.65;;;3.50;99.90;;;;;;5047997;28;20392;-87
2023/01/27 05:36:10;;;;;;;0.60;0.60;;;4.00;99.90;;;;;;5048923;28;20037;-90
2023/01/27 05:38:36;;;;;;;0.70;0.70;;;3.40;99.90;;;;;;5044451;28;20118;-89
2023/01/27 05:41:04;;;;;;;0.60;0.60;;;3.40;99.90;;;;;;5053813;28;20067;-87
2023/01/27 05:43:31;;;;;;;1.25;1.25;;;3.40;99.90;;;;;;5060633;28;20063;-87
2023/01/27 05:46:11;;;;;;;0.60;0.60;;;3.40;99.90;;;;;;5036142;28;20124;-89
2023/01/27 05:48:49;;;;;;;0.63;0.63;;;3.40;99.90;;;;;;5051609;28;20105;-88
2023/01/27 05:51:17;;;;;;;0.70;0.70;;;3.50;99.90;;;;;;5028957;28;20052;-88
2023/01/27 05:53:43;;;;;;;0.63;0.63;;;3.40;99.90;;;;;;5046434;28;20034;-88
2023/01/27 05:56:11;;;;;;;0.50;0.50;;;3.40;99.90;;;;;;5016482;28;20063;-86
2023/01/27 05:58:38;;;;;;;0.60;0.60;;;3.40;99.90;;;;;;5047097;28;20048;-86
2023/01/27 06:01:15;;;;;;;0.70;0.70;;;3.90;99.90;;;;;;5047150;28;20033;-87
2023/01/27 06:03:41;;;;;;;0.70;0.70;;;4.30;99.90;;;;;;5039627;28;20548;-85
2023/01/27 06:06:08;;;;;;;;;;;4.10;99.90;;;;;;5029078;28;20091;-86
2023/01/27 06:08:35;;;;;;;0.68;0.68;;;3.20;99.90;;;;;;5046262;28;20044;-87
2023/01/27 06:11:00;;;;;;;0.50;0.50;;;3.50;99.90;;;;;;5031833;28;20052;-87
2023/01/27 06:13:26;;;;;;;0.63;0.63;;;3.10;99.90;;;;;;5024803;28;20037;-87
2023/01/27 06:15:54;;;;;;;0.60;0.60;;;3.00;99.90;;;;;;5047323;28;20037;-89
2023/01/27 06:18:20;;;;;;;0.70;0.70;;;3.30;99.90;;;;;;5040512;28;20038;-88
2023/01/27 06:20:46;;;;;;;;;;;2.90;99.90;;;;;;5049317;28;20125;-86
2023/01/27 06:23:14;;;;;;;0.60;0.60;;;2.90;99.90;;;;;;5029316;28;20351;-87
2023/01/27 06:25:45;;;;;;;0.50;0.50;;;2.80;99.90;;;;;;5042840;28;20131;-87
2023/01/27 06:28:12;;;;;;;0.60;0.60;;;4.00;99.90;;;;;;5033759;28;20128;-87
2023/01/27 06:30:38;;;;;;;0.70;0.70;;;3.70;99.90;;;;;;5039579;28;20045;-87
2023/01/27 06:33:05;;;;;;;0.70;0.70;;;2.80;99.90;;;;;;5028001;28;20052;-87
2023/01/27 06:35:32;;;;;;;0.68;0.68;;;4.10;99.90;;;;;;5027574;28;20039;-88
2023/01/27 06:37:58;;;;;;;0.60;0.60;;;2.80;99.90;;;;;;5049417;28;20033;-88
2023/01/27 06:40:25;;;;;;;0.50;0.50;;;2.90;99.90;;;;;;5019074;28;20036;-88
2023/01/27 06:42:51;;;;;;;0.60;0.60;;;2.90;99.90;;;;;;5019324;28;20542;-87
2023/01/27 06:45:16;;;;;;;0.63;0.63;;;3.70;99.90;;;;;;5014019;28;20068;-89
2023/01/27 06:47:42;;;;;;;0.70;0.70;;;3.30;99.90;;;;;;5037491;28;20037;-88
2023/01/27 06:50:09;;;;;;;0.85;0.85;;;3.60;99.90;;;;;;5028217;28;20548;-87
2023/01/27 06:52:36;;;;;;;0.60;0.60;;;2.80;99.90;;;;;;5026850;28;20046;-87
2023/01/27 06:55:03;;;;;;;0.60;0.60;;;3.90;99.90;;;;;;5050202;28;20045;-90
2023/01/27 06:57:28;;;;;;;0.60;0.60;;;2.80;99.90;;;;;;5034544;28;20039;-88
2023/01/27 06:59:55;;;;;;;0.60;0.60;;;3.60;99.90;;;;;;5037939;28;20120;-88
2023/01/27 07:02:21;;;;;;;0.75;0.75;;;2.80;99.90;;;;;;5044585;28;20044;-90
2023/01/27 07:04:47;;;;;;;0.60;0.60;;;2.80;99.90;;;;;;5025460;28;20135;-88
2023/01/27 07:07:12;;;;;;;0.70;0.70;;;2.70;99.90;;;;;;5047259;28;20041;-89
2023/01/27 07:09:38;;;;;;;0.70;0.70;;;3.50;99.90;;;;;;5048960;28;20091;-88
2023/01/27 07:12:04;;;;;;;0.70;0.70;;;3.40;99.90;;;;;;5028117;28;20120;-88
2023/01/27 07:14:30;;;;;;;0.70;0.70;;;2.70;99.90;;;;;;5017142;28;20058;-87
2023/01/27 07:16:55;;;;;;;0.60;0.60;;;3.40;99.90;;;;;;5052138;28;20041;-87
2023/01/27 07:19:21;;;;;;;0.80;0.80;;;3.20;99.90;;;;;;5047142;28;20049;-88
2023/01/27 07:21:47;;;;;;;0.60;0.60;;;4.20;99.90;;;;;;5029150;28;20094;-86
2023/01/27 07:24:12;;;;;;;0.65;0.65;;;2.70;99.90;;;;;;5043001;28;20402;-84
2023/01/27 07:26:38;;;;;;;0.57;0.57;;;4.00;99.90;;;;;;5037424;28;20053;-85
2023/01/27 07:29:04;;;;;;;0.70;0.70;;;2.90;99.90;;;;;;5030209;28;20042;-86
2023/01/27 07:31:29;;;;;;;0.68;0.68;;;2.70;99.90;;;;;;5044477;28;20490;-84
2023/01/27 07:33:55;;;;;;;0.63;0.63;;;3.10;99.90;;;;;;5024192;28;20099;-84
2023/01/27 07:36:21;;;;;;;0.60;0.60;;;2.90;99.90;;;;;;5027025;28;20038;-85
2023/01/27 07:38:50;;;;;;;0.70;0.70;;;2.90;99.90;;;;;;5021980;28;20119;-86
2023/01/27 07:41:15;;;;;;;0.55;0.55;;;2.90;99.90;;;;;;5040307;28;20064;-90
2023/01/27 07:43:41;;;;;;;0.68;0.68;;;2.90;99.90;;;;;;5040956;28;20037;-87
2023/01/27 07:46:08;;;;;;;0.60;0.60;;;2.80;99.90;;;;;;5047919;28;20037;-86
2023/01/27 07:48:33;;;;;;;;;;;2.90;99.90;;;;;;5015772;28;20033;-86
2023/01/27 07:50:59;;;;;;;0.70;0.70;;;2.90;99.90;;;;;;5041141;28;19928;-87
2023/01/27 07:53:24;;;;;;;0.60;0.60;;;2.90;99.90;;;;;;5031991;28;20037;-86
2023/01/27 07:55:50;;;;;;;0.60;0.60;;;3.10;99.90;;;;;;5041610;28;20502;-88
2023/01/27 07:58:16;;;;;;;0.60;0.60;;;2.90;99.90;;;;;;5052426;28;20482;-86
2023/01/27 08:00:42;;;;;;;0.80;0.80;;;4.30;99.90;;;;;;5030645;28;20029;-88
2023/01/27 08:03:23;;;;;;;0.70;0.70;;;2.90;99.90;;;;;;5053361;28;20037;-88
2023/01/27 08:05:49;;;;;;;0.50;0.50;;;3.00;99.90;;;;;;5056042;28;20094;-87
2023/01/27 08:08:15;;;;;;;0.70;0.70;;;3.30;99.90;;;;;;5059881;28;20049;-85
2023/01/27 08:10:45;;;;;;;;;;;3.30;99.90;;;;;;5062952;28;20049;-87
2023/01/27 08:13:12;;;;;;;0.60;0.60;;;3.00;99.90;;;;;;5049267;28;19927;-87
2023/01/27 08:15:37;;;;;;;0.60;0.60;;;3.10;99.90;;;;;;5045618;28;20037;-88
2023/01/27 08:18:04;;;;;;;0.55;0.55;;;3.40;99.90;;;;;;5047418;28;20039;-86
2023/01/27 08:20:33;;;;;;;0.65;0.65;;;3.10;99.90;;;;;;5047805;28;20033;-88
2023/01/27 08:22:58;;;;;;;0.60;0.60;;;3.20;99.90;;;;;;5041398;28;20046;-87
2023/01/27 08:25:24;;;;;;;0.68;0.68;;;4.50;99.90;;;;;;5036596;28;20059;-87
2023/01/27 08:27:51;;;;;;;0.57;0.57;;;3.10;99.90;;;;;;5031075;28;20045;-86
2023/01/27 08:30:18;;;;;;;0.60;0.60;;;3.20;99.90;;;;;;5044981;28;20041;-87
2023/01/27 08:32:44;;;;;;;0.40;0.40;;;3.20;99.90;;;;;;5050450;28;20062;-87
2023/01/27 08:35:10;;;;;;;0.60;0.60;;;3.40;99.90;;;;;;5047508;28;20399;-86
2023/01/27 08:37:35;;;;;;;0.60;0.60;;;3.40;99.90;;;;;;5031659;28;20498;-86
2023/01/27 08:40:01;;;;;;;0.70;0.70;;;3.30;99.90;;;;;;5034953;28;20037;-85
2023/01/27 08:42:27;;;;;;;;;;;3.80;99.90;;;;;;5027579;28;20037;-86
2023/01/27 08:44:53;;;;;;;0.50;0.50;;;3.70;99.90;;;;;;5044158;28;20259;-85
2023/01/27 08:47:18;;;;;;;0.73;0.73;;;3.60;99.90;;;;;;5027185;28;20037;-87
2023/01/27 08:49:44;;;;;;;0.98;0.98;;;3.30;99.90;;;;;;5030896;28;20052;-86
2023/01/27 08:52:10;;;;;;;;;;;3.50;99.90;;;;;;5039905;28;20037;-90
2023/01/27 08:54:36;;;;;;;0.60;0.60;;;3.40;99.90;;;;;;5051632;28;20271;-85
2023/01/27 08:57:01;;;;;;;0.45;0.45;;;3.90;99.90;;;;;;5044898;28;20124;-87
2023/01/27 08:59:27;;;;;;;0.60;0.60;;;3.40;99.90;;;;;;5051788;28;20033;-86
2023/01/27 09:01:53;;;;;;;0.50;0.50;;;3.70;99.90;;;;;;5048194;28;20084;-88
2023/01/27 09:04:23;;;;;;;0.60;0.60;;;3.90;99.90;;;;;;5049586;28;20445;-88
2023/01/27 09:06:49;;;;;;;0.60;0.60;;;3.50;99.90;;;;;;5037087;28;20116;-88
2023/01/27 09:09:15;;;;;;;0.95;0.95;;;3.80;99.90;;;;;;5043729;28;20100;-87
2023/01/27 09:11:42;;;;;;;;;;;3.60;99.90;;;;;;5022592;28;20067;-88
2023/01/27 09:14:08;;;;;;;0.52;0.52;;;3.70;99.90;;;;;;5054404;28;19986;-90
2023/01/27 09:16:35;;;;;;;0.60;0.60;;;3.60;99.90;;;;;;5036357;28;20029;-88
2023/01/27 09:19:00;;;;;;;1.08;1.08;;;3.60;99.90;;;;;;5025673;28;20390;-87
2023/01/27 09:21:26;;;;;;;0.60;0.60;;;4.50;99.90;;;;;;5019371;28;20095;-87
2023/01/27 09:23:52;;;;;;;0.90;0.90;;;3.70;99.90;;;;;;5035845;28;20102;-89
2023/01/27 09:26:17;;;;;;;0.60;0.60;;;3.80;99.90;;;;;;5020735;28;20041;-87
2023/01/27 09:28:43;;;;;;;0.70;0.70;;;3.90;99.90;;;;;;5041096;28;20052;-88
2023/01/27 09:31:09;;;;;;;0.52;0.52;;;4.10;99.90;;;;;;5015538;28;20045;-89
2023/01/27 09:33:37;;;;;;;0.57;0.57;;;4.70;99.90;;;;;;5053948;28;20064;-88
2023/01/27 09:36:10;;;;;;;0.60;0.60;;;3.90;99.90;;;;;;5020598;28;20091;-90
2023/01/27 09:38:43;;;;;;;0.55;0.55;;;4.00;99.90;;;;;;5033589;28;20073;-88
2023/01/27 09:41:39;;;;;;;0.50;0.50;;;4.00;99.90;;;;;;5043346;28;20435;-89
2023/01/27 09:44:08;;;;;;;0.60;0.60;;;4.10;99.90;;;;;;5040625;28;20044;-89
2023/01/27 09:47:18;;;;;;;0.55;0.55;;;4.10;99.90;;;;;;5054186;28;20040;-90
2023/01/27 09:49:46;;;;;;;0.40;0.40;;;4.10;99.90;;;;;;5009584;28;20064;-89
2023/01/27 09:52:31;;;;;;;0.57;0.57;;;4.20;99.90;;;;;;4991587;28;20046;-89
2023/01/27 09:55:07;;;;;;;0.50;0.50;;;4.30;99.90;;;;;;5022192;28;20807;-89
2023/01/27 09:57:46;;;;;;;0.60;0.60;;;4.30;99.90;;;;;;5033881;28;20057;-88
2023/01/27 10:00:14;;;;;;;0.68;0.68;;;4.50;99.90;;;;;;5044399;28;20560;-88
2023/01/27 10:02:43;;;;;;;0.50;0.50;;;4.40;99.90;;;;;;5034864;28;20045;-88
2023/01/27 10:05:54;;;;;;;0.50;0.50;;;4.40;99.90;;;;;;5052045;28;20128;-88
2023/01/27 10:08:39;;;;;;;0.60;0.60;;;4.40;99.90;;;;;;5018309;28;20131;-87
2023/01/27 10:11:16;;;;;;;0.50;0.50;;;4.40;99.90;;;;;;5056569;28;20538;-88
2023/01/27 10:13:53;;;;;;;0.55;0.55;;;4.40;99.90;;;;;;5043665;28;20127;-89
2023/01/27 10:16:31;;;;;;;0.52;0.52;;;4.40;99.90;;;;;;5050058;28;20059;-89
2023/01/27 10:19:12;;;;;;;0.60;0.60;;;4.40;99.90;;;;;;5048918;28;20090;-89
2023/01/27 10:22:09;;;;;;;0.57;0.57;;;4.50;99.90;;;;;;5027898;28;20044;-89
2023/01/27 10:24:47;;;;;;;0.63;0.63;;;4.50;99.90;;;;;;5041976;28;20446;-88
2023/01/27 10:27:24;;;;;;;0.60;0.60;;;4.50;99.90;;;;;;5029298;28;20564;-89
2023/01/27 10:30:17;;;;;;;0.50;0.50;;;4.60;99.90;;;;;;5054209;28;20041;-90
2023/01/27 10:32:53;;;;;;;0.60;0.60;;;4.60;99.90;;;;;;5049714;28;20055;-89
2023/01/27 10:35:27;;;;;;;0.57;0.57;;;4.60;99.90;;;;;;5048986;28;20045;-90
2023/01/27 10:38:08;;;;;;;0.50;0.50;;;4.90;99.90;;;;;;5045578;28;21111;-88
2023/01/27 10:40:53;;;;;;;0.50;0.50;;;4.50;99.90;;;;;;5028579;28;20080;-88
2023/01/27 10:43:44;;;;;;;0.70;0.70;;;4.60;99.90;;;;;;5027267;28;20099;-89
2023/01/27 10:46:34;;;;;;;0.50;0.50;;;4.40;99.90;;;;;;5032419;28;20048;-88
2023/01/27 10:49:09;;;;;;;0.70;0.70;;;4.50;99.90;;;;;;5046408;28;20048;-89
2023/01/27 10:51:43;;;;;;;0.50;0.50;;;4.40;99.90;;;;;;5033638;28;20372;-89
2023/01/27 10:54:31;;;;;;;0.45;0.45;;;5.10;99.90;;;;;;5035414;28;20041;-89
2023/01/27 10:57:28;;;;;;;0.55;0.55;;;4.40;99.90;;;;;;5038011;28;20378;-86
2023/01/27 11:00:04;;;;;;;0.60;0.60;;;4.30;99.90;;;;;;5045194;28;20037;-90
2023/01/27 11:02:54;;;;;;;0.60;0.60;;;4.20;99.90;;;;;;5031000;28;20076;-88
2023/01/27 11:05:27;;;;;;;0.57;0.57;;;4.10;99.90;;;;;;5031806;28;20052;-88
2023/01/27 11:08:02;;;;;;;1.65;1.52;;;4.10;99.90;;;;;;5048055;28;20044;-88
2023/01/27 11:11:43;;;;;;;0.80;0.80;;;4.00;99.90;;;;;;5037794;28;20045;-87
2023/01/27 11:13:31;;;;;;;0.68;0.68;;;3.90;99.90;;;;;;5047743;28;20060;-88
2023/01/27 11:15:58;;;;;;;0.50;0.50;;;3.90;99.90;;;;;;5052305;28;20051;-88
2023/01/27 11:18:27;;;;;;;0.93;0.93;;;4.20;99.90;;;;;;5047288;28;20048;-89
2023/01/27 11:21:02;;;;;;;0.40;0.40;;;3.90;99.90;;;;;;5031353;28;20051;-88
2023/01/27 11:23:31;;;;;;;0.50;0.50;;;3.90;99.90;;;;;;5046487;28;20052;-90
2023/01/27 11:25:59;;;;;;;0.50;0.50;;;3.90;99.90;;;;;;5043208;28;20041;-89
2023/01/27 11:28:48;;;;;;;0.52;0.52;;;3.90;99.90;;;;;;5036753;28;20039;-87
2023/01/27 11:31:36;;;;;;;0.52;0.52;;;3.80;99.90;;;;;;5046906;28;20033;-86
2023/01/27 11:34:20;;;;;;;0.60;0.60;;;4.10;99.90;;;;;;5057038;28;20090;-86
2023/01/27 11:36:46;;;;;;;0.70;0.70;;;3.70;99.90;;;;;;5054294;28;20124;-87
2023/01/27 11:39:13;;;;;;;;;;;3.70;99.90;;;;;;5036868;28;20045;-86
2023/01/27 11:41:51;;;;;;;0.60;0.60;;;3.80;99.90;;;;;;5057841;28;19939;-85
2023/01/27 11:44:23;;;;;;;0.57;0.57;;;3.70;99.90;;;;;;5047886;28;20071;-86
2023/01/27 11:46:50;;;;;;;0.73;0.73;;;4.40;99.90;;;;;;5061634;28;20118;-86
2023/01/27 11:49:24;;;;;;;0.70;0.70;;;3.80;99.90;;;;;;5040137;28;20554;-88
2023/01/27 11:51:50;;;;;;;0.50;0.50;;;3.90;99.90;;;;;;5041534;28;20067;-85
2023/01/27 11:54:26;;;;;;;0.50;0.50;;;3.60;99.90;;;;;;5055159;28;20053;-87
2023/01/27 11:56:52;;;;;;;0.60;0.60;;;3.60;99.90;;;;;;5029409;28;20064;-85
2023/01/27 11:59:29;;;;;;;0.75;0.75;;;3.70;99.90;;;;;;5055570;28;20028;-87
2023/01/27 12:02:06;;;;;;;0.40;0.40;;;3.70;99.90;;;;;;5051127;28;20053;-86
2023/01/27 12:04:56;;;;;;;0.60;0.60;;;3.70;99.90;;;;;;5051422;28;20036;-86
2023/01/27 12:07:51;;;;;;;0.50;0.50;;;4.00;99.90;;;;;;5046550;28;20096;-86
2023/01/27 12:10:25;;;;;;;0.52;0.52;;;3.70;99.90;;;;;;5048963;28;20054;-85
2023/01/27 12:12:50;;;;;;;0.40;0.40;;;3.70;99.90;;;;;;5054388;28;20045;-86
2023/01/27 12:15:17;;;;;;;0.70;0.70;;;3.70;99.90;;;;;;5035862;28;20052;-86
2023/01/27 12:18:06;;;;;;;0.70;0.70;;;3.70;99.90;;;;;;5053255;28;20033;-86
2023/01/27 12:20:37;;;;;;;0.52;0.52;;;3.70;99.90;;;;;;5047884;28;20046;-86
2023/01/27 12:23:06;;;;;;;0.60;0.60;;;3.70;99.90;;;;;;5049051;28;20048;-87
2023/01/27 12:25:42;;;;;;;0.63;0.63;;;4.30;99.90;;;;;;5046897;28;20041;-87
2023/01/27 12:28:22;;;;;;;0.40;0.40;;;4.20;99.90;;;;;;5048380;28;20048;-86
2023/01/27 12:30:48;;;;;;;0.50;0.50;;;3.60;99.90;;;;;;5046820;28;20037;-87
2023/01/27 12:33:19;;;;;;;;;;;3.60;99.90;;;;;;5050378;28;20063;-86
2023/01/27 12:35:48;;;;;;;0.77;0.73;;;3.70;99.90;;;;;;5055516;28;19925;-86
2023/01/27 12:38:22;;;;;;;0.80;0.80;;;3.70;99.90;;;;;;5046530;28;20045;-86
2023/01/27 12:41:00;;;;;;;0.60;0.60;;;3.70;99.90;;;;;;5033776;28;20391;-87
2023/01/27 12:43:26;;;;;;;0.60;0.60;;;3.70;99.90;;;;;;5050597;28;20045;-87
2023/01/27 12:46:05;;;;;;;0.70;0.70;;;3.70;99.90;;;;;;5039049;28;20044;-88
2023/01/27 12:48:35;;;;;;;0.50;0.50;;;4.00;99.90;;;;;;5053754;28;20854;-86
2023/01/27 12:51:22;;;;;;;0.70;0.70;;;3.70;99.90;;;;;;5031386;28;20041;-87
2023/01/27 12:53:49;;;;;;;0.65;0.65;;;3.60;99.90;;;;;;5055475;28;20047;-86
2023/01/27 12:56:17;;;;;;;0.40;0.40;;;3.60;99.90;;;;;;5036022;28;20077;-86
2023/01/27 12:58:59;;;;;;;0.57;0.57;;;3.60;99.90;;;;;;5054223;28;20044;-86
2023/01/27 13:01:28;;;;;;;0.57;0.57;;;3.50;99.90;;;;;;5035075;28;20116;-86
2023/01/27 13:03:59;;;;;;;0.77;0.77;;;3.50;99.90;;;;;;5056251;28;20075;-86
2023/01/27 13:06:41;;;;;;;0.75;0.75;;;3.60;99.90;;;;;;5054056;28;20103;-86
2023/01/27 13:09:33;;;;;;;0.57;0.57;;;3.60;99.90;;;;;;5048086;28;20037;-86
2023/01/27 13:12:29;;;;;;;0.50;0.50;;;3.70;99.90;;;;;;5049908;28;20094;-86
2023/01/27 13:15:04;;;;;;;0.50;0.50;;;3.70;99.90;;;;;;5047070;28;20904;-86
2023/01/27 13:17:47;;;;;;;0.60;0.60;;;3.80;99.90;;;;;;5054647;28;20040;-85
2023/01/27 13:20:29;;;;;;;0.50;0.50;;;4.60;99.90;;;;;;5047478;28;20133;-86
2023/01/27 13:22:58;;;;;;;0.63;0.63;;;3.90;99.90;;;;;;5022782;28;20051;-85
2023/01/27 13:25:36;;;;;;;0.50;0.50;;;3.90;99.90;;;;;;5042292;28;20045;-86
2023/01/27 13:28:05;;;;;;;0.60;0.60;;;3.90;99.90;;;;;;5035240;28;20072;-86
2023/01/27 13:30:34;;;;;;;0.60;0.60;;;3.90;99.90;;;;;;5045894;28;20037;-87
2023/01/27 13:33:21;;;;;;;0.57;0.57;;;3.90;99.90;;;;;;5047910;28;20144;-85
2023/01/27 13:36:15;;;;;;;0.60;0.60;;;3.90;99.90;;;;;;5039289;28;20100;-86
2023/01/27 13:38:48;;;;;;;0.47;0.47;;;3.90;99.90;;;;;;5060661;28;20056;-87
2023/01/27 13:41:21;;;;;;;0.50;0.50;;;4.70;99.90;;;;;;5036540;28;20041;-87
2023/01/27 13:43:59;;;;;;;0.40;0.40;;;4.20;99.90;;;;;;5051670;28;20110;-86
2023/01/27 13:46:32;;;;;;;0.60;0.60;;;4.30;99.90;;;;;;5043018;28;20055;-87